createdAt,value
2023-02-11T00:00:42.429Z,14.47
2023-02-11T00:03:10.736Z,14.43
2023-02-11T00:05:40.709Z,14.73
2023-02-11T00:08:09.014Z,14.27
2023-02-11T00:10:37.418Z,14.80
2023-02-11T00:13:05.883Z,15.03
2023-02-11T00:15:34.188Z,14.77
2023-02-11T00:18:02.492Z,14.07
2023-02-11T00:20:31.003Z,15.70
2023-02-11T00:23:00.707Z,15.77
2023-02-11T00:25:29.212Z,16.77
2023-02-11T00:27:57.686Z,15.23
2023-02-11T00:30:27.628Z,15.30
2023-02-11T00:32:56.140Z,15.63
2023-02-11T00:35:24.786Z,15.00
2023-02-11T00:37:54.754Z,15.63
2023-02-11T00:40:24.664Z,14.50
2023-02-11T00:42:53.054Z,13.90
2023-02-11T00:45:21.954Z,13.97
2023-02-11T00:47:50.330Z,14.80
2023-02-11T00:50:18.909Z,13.97
2023-02-11T00:52:48.145Z,14.03
2023-02-11T00:55:17.118Z,14.70
2023-02-11T00:57:46.849Z,13.50
2023-02-11T01:00:18.277Z,14.13
2023-02-11T01:02:46.885Z,13.83
2023-02-11T01:05:15.170Z,13.97
2023-02-11T01:07:43.494Z,13.73
2023-02-11T01:10:11.785Z,13.00
2023-02-11T01:12:41.199Z,12.57
2023-02-11T01:15:14.584Z,12.87
2023-02-11T01:17:43.070Z,13.37
2023-02-11T01:20:17.395Z,12.87
2023-02-11T01:22:45.863Z,13.43
2023-02-11T01:25:14.572Z,12.60
2023-02-11T01:27:43.134Z,13.30
2023-02-11T01:30:15.040Z,13.30
2023-02-11T01:32:43.540Z,13.57
2023-02-11T01:35:11.968Z,12.37
2023-02-11T01:37:40.234Z,12.50
2023-02-11T01:40:13.639Z,13.53
2023-02-11T01:42:42.512Z,12.70
2023-02-11T01:45:53.566Z,13.87
2023-02-11T01:48:26.811Z,12.10
2023-02-11T01:50:58.880Z,13.83
2023-02-11T01:53:44.856Z,14.00
2023-02-11T01:56:30.971Z,13.17
2023-02-11T01:59:03.518Z,12.37
2023-02-11T02:01:33.714Z,13.20
2023-02-11T02:04:07.060Z,14.30
2023-02-11T02:06:38.589Z,13.90
2023-02-11T02:09:08.870Z,14.30
2023-02-11T02:11:37.845Z,14.83
2023-02-11T02:14:06.248Z,14.50
2023-02-11T02:16:36.456Z,14.90
2023-02-11T02:19:35.734Z,15.27
2023-02-11T02:22:30.561Z,15.47
2023-02-11T02:25:15.242Z,15.30
2023-02-11T02:27:50.390Z,16.50
2023-02-11T02:30:42.581Z,16.77
2023-02-11T02:33:23.563Z,17.17
2023-02-11T02:35:58.556Z,17.03
2023-02-11T02:38:31.918Z,16.93
2023-02-11T02:41:04.500Z,17.37
2023-02-11T02:43:32.978Z,17.20
2023-02-11T02:46:12.756Z,17.33
2023-02-11T02:48:42.804Z,18.50
2023-02-11T02:51:21.793Z,17.43
2023-02-11T02:53:56.821Z,19.33
2023-02-11T02:56:31.096Z,18.87
2023-02-11T02:59:14.945Z,18.07
2023-02-11T03:01:51.408Z,18.43
2023-02-11T03:04:27.045Z,17.90
2023-02-11T03:06:59.180Z,17.97
2023-02-11T03:09:31.051Z,18.23
2023-02-11T03:11:59.452Z,18.93
2023-02-11T03:14:28.632Z,18.03
2023-02-11T03:16:58.226Z,18.30
2023-02-11T03:19:30.233Z,18.23
2023-02-11T03:21:59.258Z,18.43
2023-02-11T03:24:34.661Z,19.27
2023-02-11T03:27:06.819Z,19.50
2023-02-11T03:29:38.049Z,19.70
2023-02-11T03:32:12.198Z,17.57
2023-02-11T03:34:45.620Z,19.33
2023-02-11T03:37:16.457Z,17.50
2023-02-11T03:39:48.075Z,18.20
2023-02-11T03:42:16.521Z,18.80
2023-02-11T03:44:48.022Z,17.77
2023-02-11T03:47:17.235Z,18.43
2023-02-11T03:49:48.725Z,18.73
2023-02-11T03:52:17.433Z,19.60
2023-02-11T03:54:47.040Z,18.13
2023-02-11T03:57:15.299Z,18.03
2023-02-11T03:59:54.530Z,19.77
2023-02-11T04:02:24.044Z,17.77
2023-02-11T04:04:53.721Z,18.17
2023-02-11T04:07:22.250Z,18.23
2023-02-11T04:09:50.717Z,18.10
2023-02-11T04:12:19.119Z,19.70
2023-02-11T04:14:47.401Z,19.50
2023-02-11T04:17:15.654Z,19.77
2023-02-11T04:19:43.938Z,19.23
2023-02-11T04:22:13.628Z,18.30
2023-02-11T04:24:44.058Z,19.30
2023-02-11T04:27:12.370Z,18.43
2023-02-11T04:29:40.627Z,19.93
2023-02-11T04:32:09.011Z,20.10
2023-02-11T04:34:37.480Z,20.60
2023-02-11T04:37:06.042Z,20.07
2023-02-11T04:39:35.862Z,19.97
2023-02-11T04:42:04.291Z,21.50
2023-02-11T04:44:32.664Z,19.60
2023-02-11T04:47:01.394Z,20.47
2023-02-11T04:49:29.754Z,20.53
2023-02-11T04:51:58.057Z,20.17
2023-02-11T04:54:26.432Z,19.30
2023-02-11T04:56:56.018Z,19.70
2023-02-11T04:59:33.133Z,18.93
2023-02-11T05:02:01.461Z,19.80
2023-02-11T05:04:29.752Z,20.53
2023-02-11T05:06:58.768Z,19.13
2023-02-11T05:09:27.079Z,19.80
2023-02-11T05:11:56.848Z,18.60
2023-02-11T05:14:25.128Z,18.83
2023-02-11T05:16:53.544Z,17.33
2023-02-11T05:19:21.947Z,18.10
2023-02-11T05:22:01.632Z,16.27
2023-02-11T05:24:30.741Z,16.60
2023-02-11T05:27:00.690Z,16.13
2023-02-11T05:29:29.574Z,16.13
2023-02-11T05:31:59.298Z,14.37
2023-02-11T05:34:27.668Z,15.00
2023-02-11T05:36:56.101Z,14.67
2023-02-11T05:39:24.424Z,13.63
2023-02-11T05:41:52.691Z,14.00
2023-02-11T05:44:22.495Z,14.23
2023-02-11T05:46:50.793Z,13.83
2023-02-11T05:49:19.596Z,15.03
2023-02-11T05:51:48.071Z,13.70
2023-02-11T05:54:16.803Z,13.30
2023-02-11T05:56:45.150Z,13.77
2023-02-11T05:59:14.793Z,13.80
2023-02-11T06:01:44.705Z,13.73
2023-02-11T06:04:13.036Z,13.53
2023-02-11T06:06:41.317Z,13.13
2023-02-11T06:09:10.570Z,12.13
2023-02-11T06:11:38.984Z,12.30
2023-02-11T06:14:07.263Z,13.40
2023-02-11T06:16:35.477Z,13.40
2023-02-11T06:19:05.144Z,12.47
2023-02-11T06:21:43.459Z,12.77
2023-02-11T06:24:12.719Z,12.60
2023-02-11T06:26:41.015Z,13.97
2023-02-11T06:29:09.612Z,12.90
2023-02-11T06:31:39.841Z,12.87
2023-02-11T06:34:10.473Z,13.17
2023-02-11T06:36:40.156Z,13.53
2023-02-11T06:39:08.917Z,12.70
2023-02-11T06:41:37.809Z,13.50
2023-02-11T06:44:06.336Z,13.50
2023-02-11T06:46:35.015Z,15.37
2023-02-11T06:49:03.381Z,14.43
2023-02-11T06:51:33.172Z,14.03
2023-02-11T06:54:01.462Z,14.37
2023-02-11T06:56:30.380Z,13.63
2023-02-11T06:58:58.761Z,14.17
2023-02-11T07:01:27.982Z,13.33
2023-02-11T07:03:56.537Z,12.60
2023-02-11T07:06:28.086Z,12.87
2023-02-11T07:08:58.069Z,14.10
2023-02-11T07:11:27.936Z,13.23
2023-02-11T07:13:58.537Z,12.53
2023-02-11T07:16:26.984Z,12.67
2023-02-11T07:18:55.495Z,11.23
2023-02-11T07:21:24.815Z,13.17
2023-02-11T07:23:53.325Z,12.80
2023-02-11T07:26:24.536Z,11.13
2023-02-11T07:28:53.513Z,11.63
2023-02-11T07:31:23.845Z,11.13
2023-02-11T07:33:53.737Z,11.67
2023-02-11T07:36:22.550Z,10.73
2023-02-11T07:38:51.039Z,11.60
2023-02-11T07:41:21.645Z,10.10
2023-02-11T07:43:51.700Z,10.50
2023-02-11T07:46:21.604Z,9.50
2023-02-11T07:48:50.842Z,9.87
2023-02-11T07:51:20.717Z,9.50
2023-02-11T07:53:49.175Z,9.23
2023-02-11T07:56:18.057Z,9.87
2023-02-11T07:58:46.552Z,8.43
2023-02-11T08:01:18.403Z,9.73
2023-02-11T08:03:47.034Z,9.93
2023-02-11T08:06:17.216Z,8.93
2023-02-11T08:08:46.295Z,10.33
2023-02-11T08:11:16.956Z,8.77
2023-02-11T08:13:45.604Z,9.20
2023-02-11T08:16:20.366Z,10.10
2023-02-11T08:18:49.217Z,8.60
2023-02-11T08:21:17.723Z,9.03
2023-02-11T08:23:47.623Z,9.87
2023-02-11T08:26:18.169Z,9.23
2023-02-11T08:28:47.486Z,8.40
2023-02-11T08:31:19.141Z,8.53
2023-02-11T08:33:47.805Z,8.37
2023-02-11T08:36:17.846Z,8.57
2023-02-11T08:38:46.377Z,8.17
2023-02-11T08:41:15.531Z,7.83
2023-02-11T08:43:44.479Z,6.70
2023-02-11T08:46:17.015Z,7.03
2023-02-11T08:48:45.514Z,7.40
2023-02-11T08:51:16.238Z,7.20
2023-02-11T08:53:44.686Z,6.77
2023-02-11T08:56:14.273Z,6.07
2023-02-11T08:58:42.769Z,6.03
2023-02-11T09:01:12.327Z,6.70
2023-02-11T09:03:41.984Z,5.83
2023-02-11T09:06:12.059Z,5.63
2023-02-11T09:08:44.185Z,5.80
2023-02-11T09:11:14.007Z,5.60
2023-02-11T09:13:43.049Z,5.67
2023-02-11T09:16:18.317Z,6.13
2023-02-11T09:18:48.814Z,6.73
2023-02-11T09:21:17.931Z,6.77
2023-02-11T09:23:47.799Z,5.77
2023-02-11T09:26:17.683Z,5.83
2023-02-11T09:28:46.023Z,4.93
2023-02-11T09:31:16.902Z,4.90
2023-02-11T09:33:48.829Z,5.40
2023-02-11T09:36:19.361Z,6.40
2023-02-11T09:38:48.402Z,6.37
2023-02-11T09:41:34.986Z,5.27
2023-02-11T09:44:06.569Z,6.00
2023-02-11T09:46:38.102Z,5.23
2023-02-11T09:49:08.410Z,4.53
2023-02-11T09:51:41.691Z,4.27
2023-02-11T09:54:16.343Z,4.67
2023-02-11T09:56:44.825Z,5.67
2023-02-11T09:59:15.568Z,4.67
2023-02-11T10:01:48.760Z,4.07
2023-02-11T10:04:24.997Z,4.50
2023-02-11T10:06:55.740Z,4.83
2023-02-11T10:09:44.191Z,5.00
2023-02-11T10:12:40.186Z,4.70
2023-02-11T10:15:19.042Z,5.03
2023-02-11T10:18:09.917Z,4.73
2023-02-11T10:20:40.786Z,5.20
2023-02-11T10:23:13.180Z,4.77
2023-02-11T10:25:45.484Z,5.10
2023-02-11T10:28:16.915Z,4.53
2023-02-11T10:30:51.354Z,4.43
2023-02-11T10:33:26.119Z,4.63
2023-02-11T10:35:55.760Z,4.60
2023-02-11T10:38:24.091Z,3.27
2023-02-11T10:40:52.913Z,3.63
2023-02-11T10:43:25.778Z,3.17
2023-02-11T10:45:56.150Z,3.60
2023-02-11T10:48:46.571Z,2.90
2023-02-11T10:51:21.657Z,3.73
2023-02-11T10:53:51.062Z,2.97
2023-02-11T10:56:25.798Z,3.30
2023-02-11T10:59:00.433Z,3.37
2023-02-11T11:01:47.418Z,3.10
2023-02-11T11:04:39.750Z,2.57
2023-02-11T11:07:15.620Z,2.50
2023-02-11T11:09:51.894Z,2.63
2023-02-11T11:12:27.617Z,2.40
2023-02-11T11:14:56.514Z,2.30
2023-02-11T11:17:25.858Z,2.70
2023-02-11T11:19:54.090Z,2.80
2023-02-11T11:22:24.011Z,2.53
2023-02-11T11:24:54.462Z,2.23
2023-02-11T11:27:25.301Z,2.70
2023-02-11T11:29:55.743Z,2.73
2023-02-11T11:32:26.124Z,2.60
2023-02-11T11:34:56.589Z,2.80
2023-02-11T11:37:28.309Z,1.90
2023-02-11T11:39:59.066Z,2.40
2023-02-11T11:42:29.362Z,3.10
2023-02-11T11:44:59.397Z,2.50
2023-02-11T11:47:31.167Z,2.90
2023-02-11T11:50:21.421Z,2.43
2023-02-11T11:52:54.025Z,2.40
2023-02-11T11:55:24.143Z,2.63
2023-02-11T11:57:52.537Z,2.27
2023-02-11T12:00:22.806Z,2.50
2023-02-11T12:03:17.662Z,2.53
2023-02-11T12:05:53.480Z,2.10
2023-02-11T12:08:29.102Z,2.40
2023-02-11T12:11:06.852Z,2.30
2023-02-11T12:13:53.097Z,2.20
2023-02-11T12:16:29.887Z,2.40
2023-02-11T12:19:24.539Z,2.67
2023-02-11T12:22:01.470Z,2.40
2023-02-11T12:25:00.206Z,2.43
2023-02-11T12:27:40.104Z,2.80
2023-02-11T12:30:20.361Z,2.63
2023-02-11T12:32:52.874Z,2.30
2023-02-11T12:35:32.619Z,2.53
2023-02-11T12:38:18.733Z,3.20
2023-02-11T12:40:55.092Z,2.57
2023-02-11T12:43:24.890Z,3.43
2023-02-11T12:46:03.577Z,2.87
2023-02-11T12:48:56.983Z,2.70
2023-02-11T12:51:34.040Z,2.33
2023-02-11T12:54:16.715Z,3.77
2023-02-11T12:56:49.936Z,2.93
2023-02-11T12:59:30.518Z,2.67
2023-02-11T13:01:59.802Z,2.60
2023-02-11T13:04:31.654Z,2.20
2023-02-11T13:07:02.958Z,2.63
2023-02-11T13:09:38.073Z,2.37
2023-02-11T13:12:24.384Z,2.43
2023-02-11T13:14:54.044Z,2.20
2023-02-11T13:17:26.962Z,1.80
2023-02-11T13:20:00.248Z,2.10
2023-02-11T13:22:33.125Z,2.37
2023-02-11T13:25:07.049Z,2.23
2023-02-11T13:27:43.734Z,2.00
2023-02-11T13:30:27.514Z,2.33
2023-02-11T13:33:19.930Z,1.93
2023-02-11T13:35:51.322Z,2.10
2023-02-11T13:38:22.606Z,2.33
2023-02-11T13:41:03.978Z,2.20
2023-02-11T13:43:35.850Z,2.07
2023-02-11T13:46:06.526Z,1.90
2023-02-11T13:48:37.307Z,1.77
2023-02-11T13:51:07.831Z,2.00
2023-02-11T13:53:46.670Z,2.17
2023-02-11T13:56:28.476Z,2.40
2023-02-11T13:59:01.908Z,2.43
2023-02-11T14:02:13.050Z,2.23
2023-02-11T14:05:26.574Z,2.40
2023-02-11T14:08:36.342Z,2.30
2023-02-11T14:11:12.358Z,2.67
2023-02-11T14:14:19.478Z,2.43
2023-02-11T14:17:24.451Z,2.43
2023-02-11T14:19:54.110Z,2.40
2023-02-11T14:22:26.045Z,2.30
2023-02-11T14:24:56.923Z,1.97
2023-02-11T14:27:35.532Z,2.47
2023-02-11T14:30:12.914Z,2.10
2023-02-11T14:32:51.033Z,1.93
2023-02-11T14:35:25.373Z,2.30
2023-02-11T14:37:58.365Z,2.60
2023-02-11T14:40:30.817Z,2.57
2023-02-11T14:43:02.694Z,1.73
2023-02-11T14:45:31.188Z,2.47
2023-02-11T14:48:04.757Z,2.40
2023-02-11T14:50:38.040Z,2.00
2023-02-11T14:53:06.734Z,2.37
2023-02-11T14:55:37.088Z,2.77
2023-02-11T14:58:16.881Z,3.00
2023-02-11T15:00:53.688Z,2.10
2023-02-11T15:03:30.943Z,2.13
2023-02-11T15:06:02.851Z,2.30
2023-02-11T15:08:31.836Z,1.87
2023-02-11T15:11:02.380Z,2.10
2023-02-11T15:13:32.250Z,2.20
2023-02-11T15:16:05.317Z,2.43
2023-02-11T15:18:38.250Z,2.50
2023-02-11T15:21:08.630Z,2.97
2023-02-11T15:23:37.384Z,2.33
2023-02-11T15:26:14.358Z,2.17
2023-02-11T15:28:48.880Z,2.67
2023-02-11T15:31:20.096Z,2.27
2023-02-11T15:33:48.598Z,3.20
2023-02-11T15:36:19.222Z,2.20
2023-02-11T15:38:47.792Z,2.40
2023-02-11T15:41:35.534Z,2.40
2023-02-11T15:44:03.922Z,2.80
2023-02-11T15:46:38.239Z,2.50
2023-02-11T15:49:08.642Z,2.47
2023-02-11T15:51:39.945Z,2.87
2023-02-11T15:54:16.585Z,2.50
2023-02-11T15:56:48.728Z,3.00
2023-02-11T15:59:19.799Z,2.57
2023-02-11T16:01:49.049Z,2.90
2023-02-11T16:04:19.000Z,3.93
2023-02-11T16:06:49.031Z,3.43
2023-02-11T16:09:26.810Z,3.93
2023-02-11T16:11:58.159Z,4.00
2023-02-11T16:14:32.358Z,2.97
2023-02-11T16:17:04.046Z,2.87
2023-02-11T16:19:33.611Z,4.20
2023-02-11T16:22:08.983Z,3.33
2023-02-11T16:24:38.477Z,3.70
2023-02-11T16:27:09.140Z,4.37
2023-02-11T16:29:38.730Z,3.47
2023-02-11T16:32:09.293Z,3.97
2023-02-11T16:34:38.014Z,4.53
2023-02-11T16:37:08.049Z,3.87
2023-02-11T16:39:36.351Z,3.93
2023-02-11T16:42:07.441Z,3.33
2023-02-11T16:44:36.196Z,4.27
2023-02-11T16:47:05.974Z,4.67
2023-02-11T16:49:37.321Z,3.73
2023-02-11T16:52:10.556Z,3.30
2023-02-11T16:54:38.828Z,4.20
2023-02-11T16:57:11.090Z,3.87
2023-02-11T16:59:39.482Z,4.33
2023-02-11T17:02:13.256Z,3.80
2023-02-11T17:04:41.645Z,4.77
2023-02-11T17:07:11.370Z,3.17
2023-02-11T17:09:40.026Z,3.97
2023-02-11T17:12:08.438Z,4.30
2023-02-11T17:14:36.792Z,4.33
2023-02-11T17:17:05.286Z,4.43
2023-02-11T17:19:33.748Z,3.17
2023-02-11T17:22:02.148Z,4.53
2023-02-11T17:24:31.925Z,3.70
2023-02-11T17:27:00.437Z,3.63
2023-02-11T17:29:28.832Z,3.93
2023-02-11T17:31:57.166Z,4.17
2023-02-11T17:34:25.548Z,5.30
2023-02-11T17:36:53.769Z,4.57
2023-02-11T17:39:22.028Z,4.53
2023-02-11T17:41:51.732Z,4.07
2023-02-11T17:44:20.126Z,4.37
2023-02-11T17:46:48.453Z,4.77
2023-02-11T17:49:16.884Z,4.67
2023-02-11T17:51:45.342Z,4.27
2023-02-11T17:54:15.198Z,4.30
2023-02-11T17:56:43.835Z,4.67
2023-02-11T17:59:14.912Z,3.73
2023-02-11T18:01:44.294Z,4.33
2023-02-11T18:04:14.959Z,4.30
2023-02-11T18:06:43.164Z,4.70
2023-02-11T18:09:11.582Z,4.40
2023-02-11T18:11:41.202Z,4.07
2023-02-11T18:14:09.782Z,4.60
2023-02-11T18:16:43.145Z,3.87
2023-02-11T18:19:12.568Z,4.17
2023-02-11T18:21:40.914Z,4.47
2023-02-11T18:24:09.293Z,4.43
2023-02-11T18:26:37.723Z,4.17
2023-02-11T18:29:07.314Z,4.70
2023-02-11T18:31:36.358Z,4.07
2023-02-11T18:34:08.487Z,4.77
2023-02-11T18:36:36.960Z,4.50
2023-02-11T18:39:05.775Z,4.33
2023-02-11T18:41:34.240Z,3.67
2023-02-11T18:44:03.401Z,4.43
2023-02-11T18:46:32.016Z,4.80
2023-02-11T18:49:00.388Z,3.57
2023-02-11T18:51:32.340Z,4.40
2023-02-11T18:54:01.359Z,3.63
2023-02-11T18:56:29.665Z,4.83
2023-02-11T18:59:01.185Z,3.63
2023-02-11T19:01:31.217Z,4.53
2023-02-11T19:04:03.039Z,3.80
2023-02-11T19:06:34.561Z,3.20
2023-02-11T19:09:05.858Z,4.00
2023-02-11T19:11:50.472Z,3.43
2023-02-11T19:14:21.586Z,2.93
2023-02-11T19:16:51.329Z,3.13
2023-02-11T19:19:20.386Z,3.77
2023-02-11T19:21:50.272Z,3.07
2023-02-11T19:24:20.011Z,4.23
2023-02-11T19:26:48.746Z,3.30
2023-02-11T19:29:17.261Z,3.30
2023-02-11T19:31:46.284Z,3.10
2023-02-11T19:34:16.183Z,3.40
2023-02-11T19:36:44.784Z,3.97
2023-02-11T19:39:14.760Z,4.30
2023-02-11T19:41:44.200Z,3.43
2023-02-11T19:44:14.296Z,3.30
2023-02-11T19:46:42.734Z,3.73
2023-02-11T19:49:12.701Z,3.90
2023-02-11T19:51:40.942Z,2.77
2023-02-11T19:54:09.425Z,3.93
2023-02-11T19:56:39.144Z,2.90
2023-02-11T19:59:08.958Z,3.20
2023-02-11T20:01:37.832Z,4.20
2023-02-11T20:04:06.355Z,3.37
2023-02-11T20:06:35.668Z,3.00
2023-02-11T20:09:06.439Z,4.10
2023-02-11T20:11:35.640Z,3.33
2023-02-11T20:14:06.743Z,3.93
2023-02-11T20:16:47.693Z,4.40
2023-02-11T20:19:18.517Z,3.50
2023-02-11T20:21:48.573Z,4.00
2023-02-11T20:24:17.507Z,3.70
2023-02-11T20:26:48.308Z,3.80
2023-02-11T20:29:18.818Z,3.60
2023-02-11T20:31:47.542Z,3.50
2023-02-11T20:34:17.600Z,3.83
2023-02-11T20:36:51.804Z,3.87
2023-02-11T20:39:22.366Z,3.60
2023-02-11T20:41:51.485Z,4.13
2023-02-11T20:44:22.975Z,3.20
2023-02-11T20:46:52.123Z,4.47
2023-02-11T20:49:22.131Z,3.63
2023-02-11T20:51:51.533Z,2.67
2023-02-11T20:54:21.245Z,3.60
2023-02-11T20:56:51.111Z,3.17
2023-02-11T20:59:22.066Z,3.70
2023-02-11T21:01:53.435Z,3.50
2023-02-11T21:04:23.794Z,4.07
2023-02-11T21:06:55.852Z,3.30
2023-02-11T21:09:27.968Z,3.20
2023-02-11T21:11:56.565Z,2.87
2023-02-11T21:14:26.904Z,3.77
2023-02-11T21:16:55.173Z,3.20
2023-02-11T21:19:23.444Z,3.23
2023-02-11T21:21:51.935Z,3.23
2023-02-11T21:24:20.207Z,3.20
2023-02-11T21:26:48.481Z,3.17
2023-02-11T21:29:16.890Z,3.27
2023-02-11T21:31:46.633Z,4.33
2023-02-11T21:34:16.228Z,4.20
2023-02-11T21:36:45.266Z,3.10
2023-02-11T21:39:14.797Z,3.33
2023-02-11T21:41:43.077Z,4.37
2023-02-11T21:44:11.395Z,3.93
2023-02-11T21:46:39.667Z,3.57
2023-02-11T21:49:09.402Z,4.73
2023-02-11T21:51:37.774Z,3.67
2023-02-11T21:54:06.295Z,3.33
2023-02-11T21:56:35.499Z,3.87
2023-02-11T21:59:03.967Z,4.03
2023-02-11T22:01:33.770Z,3.93
2023-02-11T22:04:02.352Z,4.00
2023-02-11T22:06:34.434Z,3.43
2023-02-11T22:09:04.136Z,3.83
2023-02-11T22:11:32.415Z,3.77
2023-02-11T22:14:00.822Z,4.03
2023-02-11T22:16:29.853Z,4.00
2023-02-11T22:18:59.406Z,3.70
2023-02-11T22:21:27.654Z,3.83
2023-02-11T22:23:57.602Z,3.17
2023-02-11T22:26:27.736Z,3.47
2023-02-11T22:28:56.401Z,3.53
2023-02-11T22:31:26.757Z,4.67
2023-02-11T22:33:55.463Z,3.50
2023-02-11T22:36:25.743Z,4.10
2023-02-11T22:38:54.441Z,3.73
2023-02-11T22:41:25.405Z,3.57
2023-02-11T22:43:53.732Z,3.80
2023-02-11T22:46:22.186Z,4.77
2023-02-11T22:48:50.804Z,3.93
2023-02-11T22:51:20.737Z,3.17
2023-02-11T22:53:53.295Z,3.73
2023-02-11T22:56:23.368Z,3.73
2023-02-11T22:58:51.956Z,4.77
2023-02-11T23:01:21.175Z,4.77
2023-02-11T23:03:49.789Z,3.73
2023-02-11T23:06:18.120Z,4.77
2023-02-11T23:08:46.810Z,4.47
2023-02-11T23:11:16.825Z,4.43
2023-02-11T23:13:47.399Z,4.87
2023-02-11T23:16:17.503Z,4.57
2023-02-11T23:18:47.026Z,4.63
2023-02-11T23:21:17.141Z,4.30
2023-02-11T23:23:46.145Z,4.87
2023-02-11T23:26:16.299Z,4.73
2023-02-11T23:28:46.545Z,5.33
2023-02-11T23:31:17.621Z,4.97
2023-02-11T23:33:46.481Z,5.17
2023-02-11T23:36:14.889Z,5.37
2023-02-11T23:38:43.656Z,5.13
2023-02-11T23:41:12.256Z,5.43
2023-02-11T23:43:40.667Z,5.30
2023-02-11T23:46:10.852Z,5.33
2023-02-11T23:48:40.513Z,5.20
2023-02-11T23:51:09.567Z,5.50
2023-02-11T23:53:38.119Z,5.20
2023-02-11T23:56:11.189Z,4.87
2023-02-11T23:58:39.508Z,5.47
